createdAt,value
2023-02-22T00:00:23.236Z,99196.38
2023-02-22T00:02:51.710Z,99192.22
2023-02-22T00:05:19.690Z,99186.13
2023-02-22T00:07:47.880Z,99192.09
2023-02-22T00:10:17.957Z,99199.59
2023-02-22T00:12:44.391Z,99190.41
2023-02-22T00:15:10.918Z,99192.88
2023-02-22T00:17:37.298Z,99185.38
2023-02-22T00:20:05.507Z,99192.72
2023-02-22T00:22:32.068Z,99190.91
2023-02-22T00:24:58.475Z,99183.56
2023-02-22T00:27:25.265Z,99183.56
2023-02-22T00:29:52.031Z,99186.91
2023-02-22T00:32:18.906Z,99186.19
2023-02-22T00:34:45.308Z,99182.59
2023-02-22T00:37:11.834Z,99182.59
2023-02-22T00:39:38.576Z,99175.50
2023-02-22T00:42:06.684Z,99176.50
2023-02-22T00:44:33.148Z,99182.75
2023-02-22T00:46:59.699Z,99174.38
2023-02-22T00:49:26.094Z,99173.84
2023-02-22T00:51:52.613Z,99165.78
2023-02-22T00:54:19.259Z,99167.44
2023-02-22T00:56:45.687Z,99166.47
2023-02-22T00:59:12.532Z,99161.75
2023-02-22T01:01:40.561Z,99156.22
2023-02-22T01:04:07.342Z,99159.94
2023-02-22T01:06:33.971Z,99155.47
2023-02-22T01:09:00.931Z,99151.47
2023-02-22T01:11:29.456Z,99147.84
2023-02-22T01:13:57.528Z,99140.91
2023-02-22T01:16:24.185Z,99134.25
2023-02-22T01:18:50.872Z,99129.94
2023-02-22T01:21:18.016Z,99133.00
2023-02-22T01:23:45.692Z,99121.63
2023-02-22T01:26:12.291Z,99119.53
2023-02-22T01:28:39.255Z,99119.66
2023-02-22T01:31:05.915Z,99122.81
2023-02-22T01:33:32.703Z,99110.91
2023-02-22T01:35:59.344Z,99109.63
2023-02-22T01:38:26.482Z,99112.00
2023-02-22T01:40:52.937Z,99101.59
2023-02-22T01:43:27.282Z,99100.88
2023-02-22T01:46:28.557Z,99094.91
2023-02-22T01:48:59.710Z,99086.44
2023-02-22T01:51:31.104Z,99084.53
2023-02-22T01:54:16.873Z,99084.78
2023-02-22T01:56:54.512Z,99078.56
2023-02-22T01:59:22.394Z,99086.44
2023-02-22T02:01:49.040Z,99084.34
2023-02-22T02:04:20.390Z,99076.88
2023-02-22T02:06:47.992Z,99071.31
2023-02-22T02:09:33.721Z,99070.47
2023-02-22T02:12:01.380Z,99059.34
2023-02-22T02:14:29.147Z,99051.72
2023-02-22T02:16:55.728Z,99061.31
2023-02-22T02:20:24.454Z,99058.16
2023-02-22T02:23:09.626Z,99058.00
2023-02-22T02:26:11.996Z,99050.66
2023-02-22T02:29:12.035Z,99054.00
2023-02-22T02:32:12.018Z,99048.03
2023-02-22T02:34:50.461Z,99048.31
2023-02-22T02:37:54.147Z,99044.84
2023-02-22T02:40:29.128Z,99043.31
2023-02-22T02:43:17.954Z,99044.44
2023-02-22T02:45:51.473Z,99045.53
2023-02-22T02:48:23.385Z,99038.28
2023-02-22T02:50:52.229Z,99034.69
2023-02-22T02:53:29.448Z,99038.69
2023-02-22T02:55:56.191Z,99029.38
2023-02-22T02:58:23.971Z,99032.88
2023-02-22T03:00:54.473Z,99022.09
2023-02-22T03:03:29.870Z,99011.78
2023-02-22T03:06:10.513Z,99009.56
2023-02-22T03:08:48.635Z,99009.81
2023-02-22T03:11:19.887Z,99006.91
2023-02-22T03:13:58.479Z,99006.09
2023-02-22T03:16:37.113Z,99000.00
2023-02-22T03:19:08.976Z,98998.88
2023-02-22T03:21:55.300Z,98997.34
2023-02-22T03:24:30.086Z,98984.28
2023-02-22T03:27:32.183Z,98985.38
2023-02-22T03:30:03.207Z,98974.19
2023-02-22T03:32:37.675Z,98976.09
2023-02-22T03:35:14.087Z,98979.84
2023-02-22T03:37:48.002Z,98974.56
2023-02-22T03:40:21.426Z,98973.88
2023-02-22T03:42:52.288Z,98970.28
2023-02-22T03:45:22.155Z,98968.59
2023-02-22T03:47:54.346Z,98963.59
2023-02-22T03:50:32.535Z,98969.22
2023-02-22T03:52:59.260Z,98963.25
2023-02-22T03:55:25.758Z,98961.50
2023-02-22T03:57:57.752Z,98956.63
2023-02-22T04:00:27.980Z,98954.13
2023-02-22T04:02:54.724Z,98950.63
2023-02-22T04:05:22.444Z,98961.41
2023-02-22T04:07:48.880Z,98958.38
2023-02-22T04:10:16.404Z,98954.31
2023-02-22T04:12:42.789Z,98956.53
2023-02-22T04:15:13.650Z,98952.94
2023-02-22T04:17:40.063Z,98955.69
2023-02-22T04:20:10.698Z,98956.53
2023-02-22T04:22:39.768Z,98959.97
2023-02-22T04:25:07.317Z,98959.97
2023-02-22T04:27:34.631Z,98957.22
2023-02-22T04:30:01.100Z,98958.19
2023-02-22T04:32:27.580Z,98968.59
2023-02-22T04:34:54.109Z,98959.00
2023-02-22T04:37:20.519Z,98959.56
2023-02-22T04:39:47.280Z,98956.69
2023-02-22T04:42:13.701Z,98950.47
2023-02-22T04:44:40.060Z,98953.94
2023-02-22T04:47:06.703Z,98954.78
2023-02-22T04:49:33.355Z,98963.22
2023-02-22T04:52:00.116Z,98952.59
2023-02-22T04:54:26.739Z,98950.63
2023-02-22T04:56:53.285Z,98951.34
2023-02-22T04:59:20.078Z,98945.53
2023-02-22T05:01:46.804Z,98946.34
2023-02-22T05:04:15.652Z,98944.69
2023-02-22T05:06:42.316Z,98946.63
2023-02-22T05:09:08.799Z,98957.28
2023-02-22T05:11:36.154Z,98952.03
2023-02-22T05:14:02.654Z,98947.97
2023-02-22T05:16:29.113Z,98947.94
2023-02-22T05:18:55.855Z,98957.88
2023-02-22T05:21:22.404Z,98954.69
2023-02-22T05:23:48.800Z,98952.41
2023-02-22T05:26:16.756Z,98948.72
2023-02-22T05:28:43.140Z,98953.69
2023-02-22T05:31:09.628Z,98951.63
2023-02-22T05:33:36.242Z,98947.09
2023-02-22T05:36:02.713Z,98947.94
2023-02-22T05:38:29.141Z,98940.19
2023-02-22T05:40:55.858Z,98941.13
2023-02-22T05:43:22.659Z,98940.88
2023-02-22T05:45:49.249Z,98939.09
2023-02-22T05:48:15.862Z,98937.41
2023-02-22T05:50:43.560Z,98925.94
2023-02-22T05:53:10.256Z,98927.34
2023-02-22T05:55:37.065Z,98920.84
2023-02-22T05:58:03.570Z,98919.56
2023-02-22T06:00:31.066Z,98919.72
2023-02-22T06:02:59.836Z,98921.13
2023-02-22T06:05:27.168Z,98914.75
2023-02-22T06:07:56.398Z,98913.69
2023-02-22T06:10:24.006Z,98912.84
2023-02-22T06:12:51.382Z,98907.44
2023-02-22T06:15:19.784Z,98912.69
2023-02-22T06:17:46.258Z,98904.09
2023-02-22T06:20:15.374Z,98913.69
2023-02-22T06:22:41.982Z,98914.09
2023-02-22T06:25:09.898Z,98915.63
2023-02-22T06:27:37.215Z,98922.44
2023-02-22T06:30:04.415Z,98925.88
2023-02-22T06:32:31.765Z,98928.41
2023-02-22T06:34:58.299Z,98933.50
2023-02-22T06:37:24.708Z,98928.97
2023-02-22T06:39:51.036Z,98939.06
2023-02-22T06:42:17.639Z,98936.31
2023-02-22T06:44:44.357Z,98942.56
2023-02-22T06:47:11.015Z,98959.72
2023-02-22T06:49:37.820Z,98963.38
2023-02-22T06:52:08.705Z,98969.31
2023-02-22T06:54:37.628Z,98978.00
2023-02-22T06:57:04.149Z,98987.03
2023-02-22T06:59:30.590Z,99001.28
2023-02-22T07:01:57.011Z,99005.31
2023-02-22T07:04:23.561Z,98995.81
2023-02-22T07:06:50.135Z,98997.47
2023-02-22T07:09:18.253Z,98999.06
2023-02-22T07:11:44.988Z,99006.13
2023-02-22T07:14:11.662Z,99007.50
2023-02-22T07:16:38.217Z,99007.13
2023-02-22T07:19:04.974Z,99011.00
2023-02-22T07:21:31.573Z,99014.06
2023-02-22T07:23:58.420Z,99008.78
2023-02-22T07:26:26.029Z,99011.88
2023-02-22T07:28:52.967Z,99011.22
2023-02-22T07:31:19.419Z,99014.25
2023-02-22T07:33:48.147Z,99011.78
2023-02-22T07:36:15.792Z,99006.09
2023-02-22T07:38:42.471Z,99012.31
2023-02-22T07:41:09.163Z,99006.88
2023-02-22T07:43:36.017Z,99001.06
2023-02-22T07:46:02.795Z,98998.41
2023-02-22T07:48:31.253Z,99008.78
2023-02-22T07:50:58.693Z,99007.50
2023-02-22T07:53:31.376Z,98998.00
2023-02-22T07:55:58.952Z,98996.97
2023-02-22T07:58:27.854Z,98979.88
2023-02-22T08:00:54.625Z,98956.56
2023-02-22T08:03:23.590Z,98953.50
2023-02-22T08:05:54.640Z,98932.06
2023-02-22T08:08:21.436Z,98914.53
2023-02-22T08:10:56.322Z,98909.22
2023-02-22T08:13:24.189Z,98897.16
2023-02-22T08:15:53.027Z,98867.97
2023-02-22T08:18:22.269Z,98850.63
2023-02-22T08:20:53.001Z,98834.47
2023-02-22T08:23:21.430Z,98827.25
2023-02-22T08:26:09.046Z,98781.84
2023-02-22T08:28:35.787Z,98754.91
2023-02-22T08:33:58.578Z,98659.78
2023-02-22T08:36:33.328Z,98632.72
2023-02-22T08:41:44.664Z,98619.16
2023-02-22T08:44:11.484Z,98624.56
2023-02-22T08:46:38.109Z,98635.56
2023-02-22T08:49:04.875Z,98614.38
2023-02-22T08:51:35.799Z,98622.19
2023-02-22T08:54:03.080Z,98625.06
2023-02-22T08:56:30.382Z,98608.84
2023-02-22T08:58:57.014Z,98606.28
2023-02-22T09:01:32.692Z,98610.22
2023-02-22T09:03:59.708Z,98608.50
2023-02-22T09:06:26.461Z,98607.75
2023-02-22T09:08:52.902Z,98606.38
2023-02-22T09:11:19.614Z,98602.34
2023-02-22T09:13:47.064Z,98605.72
2023-02-22T09:16:13.640Z,98590.84
2023-02-22T09:18:44.398Z,98579.03
2023-02-22T09:21:11.870Z,98567.56
2023-02-22T09:23:38.277Z,98559.13
2023-02-22T09:26:04.905Z,98560.94
2023-02-22T09:28:31.431Z,98566.00
2023-02-22T09:30:58.045Z,98552.19
2023-02-22T09:33:25.215Z,98543.63
2023-02-22T09:35:51.993Z,98552.53
2023-02-22T09:38:23.283Z,98550.81
2023-02-22T09:40:53.698Z,98539.78
2023-02-22T09:43:55.870Z,98533.41
2023-02-22T09:46:25.355Z,98530.56
2023-02-22T09:49:02.363Z,98526.25
2023-02-22T09:51:34.756Z,98538.41
2023-02-22T09:54:05.205Z,98531.38
2023-02-22T09:56:32.921Z,98526.88
2023-02-22T09:59:05.565Z,98530.47
2023-02-22T10:01:38.064Z,98535.47
2023-02-22T10:04:23.649Z,98528.59
2023-02-22T10:06:56.052Z,98517.22
2023-02-22T10:09:27.786Z,98510.91
2023-02-22T10:12:15.297Z,98509.97
2023-02-22T10:14:53.538Z,98505.03
2023-02-22T10:17:33.319Z,98495.41
2023-02-22T10:20:21.610Z,98487.97
2023-02-22T10:23:17.683Z,98484.81
2023-02-22T10:25:49.137Z,98483.56
2023-02-22T10:28:23.846Z,98473.47
2023-02-22T10:31:02.786Z,98475.19
2023-02-22T10:33:43.854Z,98477.53
2023-02-22T10:36:20.602Z,98471.34
2023-02-22T10:39:13.683Z,98469.50
2023-02-22T10:41:49.246Z,98461.41
2023-02-22T10:44:15.890Z,98460.34
2023-02-22T10:46:46.025Z,98461.22
2023-02-22T10:49:20.674Z,98457.50
2023-02-22T10:51:57.952Z,98461.28
2023-02-22T10:54:46.709Z,98450.59
2023-02-22T10:57:14.762Z,98452.16
2023-02-22T10:59:41.622Z,98450.22
2023-02-22T11:02:36.660Z,98451.53
2023-02-22T11:05:05.038Z,98436.78
2023-02-22T11:07:36.505Z,98437.38
2023-02-22T11:10:17.105Z,98435.31
2023-02-22T11:12:54.710Z,98435.97
2023-02-22T11:15:24.443Z,98431.31
2023-02-22T11:17:53.728Z,98424.56
2023-02-22T11:20:27.820Z,98423.69
2023-02-22T11:22:56.977Z,98420.09
2023-02-22T11:25:32.066Z,98416.22
2023-02-22T11:28:27.403Z,98413.97
2023-02-22T11:30:55.899Z,98415.63
2023-02-22T11:33:26.180Z,98405.94
2023-02-22T11:35:57.127Z,98407.66
2023-02-22T11:38:31.168Z,98400.94
2023-02-22T11:41:20.031Z,98393.91
2023-02-22T11:43:49.493Z,98391.31
2023-02-22T11:46:24.378Z,98391.34
2023-02-22T11:49:13.141Z,98381.94
2023-02-22T11:52:21.655Z,98381.94
2023-02-22T11:55:02.754Z,98372.78
2023-02-22T11:57:55.651Z,98377.44
2023-02-22T12:00:41.404Z,98375.25
2023-02-22T12:03:29.225Z,98365.19
2023-02-22T12:06:22.670Z,98364.63
2023-02-22T12:09:13.302Z,98361.84
2023-02-22T12:11:57.506Z,98365.13
2023-02-22T12:14:42.953Z,98360.75
2023-02-22T12:17:26.141Z,98356.44
2023-02-22T12:20:01.056Z,98349.28
2023-02-22T12:22:34.884Z,98344.00
2023-02-22T12:25:17.431Z,98342.75
2023-02-22T12:27:49.759Z,98346.25
2023-02-22T12:30:26.777Z,98342.66
2023-02-22T12:32:55.850Z,98346.66
2023-02-22T12:35:28.865Z,98338.81
2023-02-22T12:38:18.170Z,98346.06
2023-02-22T12:41:25.838Z,98349.66
2023-02-22T12:44:16.037Z,98345.59
2023-02-22T12:46:49.019Z,98345.72
2023-02-22T12:49:29.933Z,98340.53
2023-02-22T12:52:19.396Z,98346.06
2023-02-22T12:55:23.222Z,98348.28
2023-02-22T12:58:04.329Z,98341.25
2023-02-22T13:00:43.043Z,98347.94
2023-02-22T13:03:29.043Z,98345.47
2023-02-22T13:06:03.296Z,98335.31
2023-02-22T13:08:41.511Z,98334.84
2023-02-22T13:11:11.154Z,98334.47
2023-02-22T13:13:49.732Z,98321.16
2023-02-22T13:16:32.103Z,98322.34
2023-02-22T13:19:13.464Z,98318.94
2023-02-22T13:21:49.972Z,98318.97
2023-02-22T13:24:33.761Z,98320.22
2023-02-22T13:27:06.236Z,98325.34
2023-02-22T13:29:42.392Z,98332.16
2023-02-22T13:32:32.011Z,98326.56
2023-02-22T13:35:07.567Z,98322.25
2023-02-22T13:37:52.093Z,98329.44
2023-02-22T13:40:28.724Z,98320.88
2023-02-22T13:43:32.942Z,98328.28
2023-02-22T13:46:30.703Z,98326.28
2023-02-22T13:49:03.214Z,98321.03
2023-02-22T13:52:11.476Z,98320.00
2023-02-22T13:54:53.353Z,98316.25
2023-02-22T13:57:31.987Z,98315.09
2023-02-22T14:00:17.088Z,98316.50
2023-02-22T14:03:15.334Z,98322.34
2023-02-22T14:05:51.952Z,98320.59
2023-02-22T14:08:18.466Z,98313.81
2023-02-22T14:11:26.208Z,98316.13
2023-02-22T14:13:55.551Z,98311.81
2023-02-22T14:16:30.171Z,98314.84
2023-02-22T14:19:18.640Z,98309.84
2023-02-22T14:22:14.660Z,98311.94
2023-02-22T14:24:46.296Z,98314.63
2023-02-22T14:27:13.985Z,98314.38
2023-02-22T14:29:53.273Z,98319.16
2023-02-22T14:32:20.819Z,98308.84
2023-02-22T14:34:54.524Z,98313.63
2023-02-22T14:37:25.233Z,98310.84
2023-02-22T14:40:04.048Z,98308.72
2023-02-22T14:42:34.783Z,98302.41
2023-02-22T14:45:10.704Z,98298.28
2023-02-22T14:47:58.490Z,98300.84
2023-02-22T14:50:40.307Z,98300.03
2023-02-22T14:53:12.508Z,98303.06
2023-02-22T14:55:43.883Z,98299.34
2023-02-22T14:58:18.050Z,98298.28
2023-02-22T15:00:47.356Z,98295.38
2023-02-22T15:03:19.005Z,98292.13
2023-02-22T15:05:48.731Z,98295.28
2023-02-22T15:08:17.998Z,98297.53
2023-02-22T15:10:47.618Z,98298.47
2023-02-22T15:13:26.906Z,98298.50
2023-02-22T15:16:05.662Z,98300.81
2023-02-22T15:18:58.529Z,98296.22
2023-02-22T15:21:30.246Z,98298.09
2023-02-22T15:24:03.152Z,98300.66
2023-02-22T15:26:36.794Z,98300.91
2023-02-22T15:29:10.722Z,98300.09
2023-02-22T15:31:40.445Z,98302.06
2023-02-22T15:34:10.543Z,98301.16
2023-02-22T15:36:37.106Z,98303.91
2023-02-22T15:39:04.062Z,98298.63
2023-02-22T15:41:33.003Z,98306.56
2023-02-22T15:44:01.787Z,98304.63
2023-02-22T15:46:30.938Z,98303.00
2023-02-22T15:49:17.753Z,98302.25
2023-02-22T15:51:47.965Z,98305.16
2023-02-22T15:54:27.169Z,98311.34
2023-02-22T15:56:54.958Z,98306.44
2023-02-22T15:59:28.477Z,98303.19
2023-02-22T16:01:58.383Z,98306.16
2023-02-22T16:04:28.613Z,98313.47
2023-02-22T16:07:07.375Z,98309.81
2023-02-22T16:09:34.526Z,98308.03
2023-02-22T16:12:25.670Z,98308.91
2023-02-22T16:14:52.234Z,98306.31
2023-02-22T16:17:22.028Z,98316.44
2023-02-22T16:19:48.511Z,98315.69
2023-02-22T16:22:29.162Z,98317.38
2023-02-22T16:25:11.632Z,98321.16
2023-02-22T16:27:42.984Z,98325.94
2023-02-22T16:30:24.341Z,98323.31
2023-02-22T16:32:52.703Z,98329.94
2023-02-22T16:35:19.606Z,98333.03
2023-02-22T16:37:50.305Z,98332.06
2023-02-22T16:40:37.124Z,98340.53
2023-02-22T16:43:07.955Z,98347.78
2023-02-22T16:45:34.673Z,98342.03
2023-02-22T16:48:01.197Z,98343.94
2023-02-22T16:50:27.751Z,98350.16
2023-02-22T16:52:55.858Z,98358.66
2023-02-22T16:55:22.538Z,98352.97
2023-02-22T16:57:50.587Z,98351.97
2023-02-22T17:00:23.091Z,98368.06
2023-02-22T17:02:49.540Z,98371.22
2023-02-22T17:05:17.626Z,98368.78
2023-02-22T17:07:44.322Z,98373.56
2023-02-22T17:10:21.149Z,98379.53
2023-02-22T17:12:51.219Z,98384.72
2023-02-22T17:15:27.095Z,98399.34
2023-02-22T17:17:55.329Z,98405.97
2023-02-22T17:20:24.213Z,98409.66
2023-02-22T17:22:51.404Z,98417.50
2023-02-22T17:25:21.769Z,98423.25
2023-02-22T17:27:48.229Z,98424.84
2023-02-22T17:30:18.906Z,98421.97
2023-02-22T17:32:45.390Z,98429.00
2023-02-22T17:35:11.945Z,98434.34
2023-02-22T17:37:38.616Z,98454.09
2023-02-22T17:40:09.029Z,98463.38
2023-02-22T17:42:35.588Z,98471.16
2023-02-22T17:45:02.017Z,98466.25
2023-02-22T17:47:50.515Z,98469.28
2023-02-22T17:50:17.985Z,98491.47
2023-02-22T17:52:54.735Z,98503.59
2023-02-22T17:55:22.307Z,98498.44
2023-02-22T17:57:55.086Z,98506.03
2023-02-22T18:00:30.371Z,98507.25
2023-02-22T18:03:04.186Z,98516.25
2023-02-22T18:05:32.197Z,98521.13
2023-02-22T18:07:59.465Z,98534.03
2023-02-22T18:10:27.993Z,98531.19
2023-02-22T18:12:54.798Z,98535.47
2023-02-22T18:15:21.717Z,98546.31
2023-02-22T18:17:49.426Z,98546.66
2023-02-22T18:20:17.247Z,98545.59
2023-02-22T18:22:44.563Z,98553.44
2023-02-22T18:25:15.131Z,98556.88
2023-02-22T18:27:42.620Z,98563.56
2023-02-22T18:30:10.404Z,98575.41
2023-02-22T18:32:37.080Z,98581.28
2023-02-22T18:35:04.188Z,98589.47
2023-02-22T18:37:30.850Z,98585.97
2023-02-22T18:40:00.981Z,98583.28
2023-02-22T18:42:28.189Z,98586.06
2023-02-22T18:44:59.202Z,98596.69
2023-02-22T18:47:26.245Z,98596.25
2023-02-22T18:49:54.675Z,98603.81
2023-02-22T18:52:21.419Z,98603.22
2023-02-22T18:54:52.169Z,98614.50
2023-02-22T18:57:19.586Z,98621.81
2023-02-22T18:59:48.640Z,98624.78
2023-02-22T19:02:17.992Z,98627.22
2023-02-22T19:04:44.353Z,98635.75
2023-02-22T19:07:10.900Z,98645.78
2023-02-22T19:09:37.352Z,98634.28
2023-02-22T19:12:05.498Z,98642.50
2023-02-22T19:14:31.925Z,98650.63
2023-02-22T19:16:58.782Z,98657.53
2023-02-22T19:19:27.760Z,98662.59
2023-02-22T19:21:54.291Z,98673.78
2023-02-22T19:24:22.042Z,98675.63
2023-02-22T19:29:39.300Z,98671.50
2023-02-22T19:32:09.730Z,98679.69
2023-02-22T19:34:36.653Z,98686.59
2023-02-22T19:37:05.495Z,98698.63
2023-02-22T19:39:33.883Z,98711.84
2023-02-22T19:42:03.184Z,98724.50
2023-02-22T19:44:29.861Z,98748.38
2023-02-22T19:46:57.039Z,98748.72
2023-02-22T19:49:26.962Z,98750.13
2023-02-22T19:51:53.409Z,98748.53
2023-02-22T19:54:22.370Z,98744.25
2023-02-22T19:56:48.814Z,98745.44
2023-02-22T19:59:15.217Z,98746.06
2023-02-22T20:01:42.665Z,98747.28
2023-02-22T20:04:13.461Z,98743.94
2023-02-22T20:06:41.430Z,98752.31
2023-02-22T20:09:11.230Z,98770.75
2023-02-22T20:11:38.852Z,98775.53
2023-02-22T20:14:05.400Z,98762.88
2023-02-22T20:16:35.112Z,98762.88
2023-02-22T20:19:02.542Z,98764.50
2023-02-22T20:21:32.349Z,98756.72
2023-02-22T20:24:00.431Z,98768.09
2023-02-22T20:26:29.909Z,98767.19
2023-02-22T20:28:57.157Z,98775.69
2023-02-22T20:31:24.532Z,98778.72
2023-02-22T20:33:56.019Z,98775.50
2023-02-22T20:36:23.393Z,98788.09
2023-02-22T20:39:00.034Z,98807.63
2023-02-22T20:41:32.320Z,98819.97
2023-02-22T20:44:01.847Z,98819.31
2023-02-22T20:46:31.009Z,98819.66
2023-02-22T20:48:59.732Z,98832.50
2023-02-22T20:51:27.576Z,98833.31
2023-02-22T20:54:00.557Z,98833.78
2023-02-22T20:56:29.947Z,98830.00
2023-02-22T20:58:58.365Z,98832.84
2023-02-22T21:01:25.190Z,98840.16
2023-02-22T21:03:51.893Z,98843.34
2023-02-22T21:06:20.392Z,98847.69
2023-02-22T21:08:54.086Z,98862.09
2023-02-22T21:11:22.522Z,98877.88
2023-02-22T21:13:49.166Z,98874.22
2023-02-22T21:16:21.669Z,98875.88
2023-02-22T21:18:51.034Z,98881.19
2023-02-22T21:21:17.806Z,98877.06
2023-02-22T21:23:48.804Z,98881.38
2023-02-22T21:26:17.615Z,98884.53
2023-02-22T21:28:50.892Z,98888.38
2023-02-22T21:31:19.279Z,98891.53
2023-02-22T21:33:49.434Z,98886.91
2023-02-22T21:36:18.742Z,98888.09
2023-02-22T21:38:47.924Z,98898.69
2023-02-22T21:41:16.296Z,98894.59
2023-02-22T21:43:44.184Z,98898.75
2023-02-22T21:46:11.076Z,98900.41
2023-02-22T21:48:43.646Z,98905.41
2023-02-22T21:51:14.069Z,98909.38
2023-02-22T21:53:45.039Z,98906.38
2023-02-22T21:56:13.190Z,98907.91
2023-02-22T21:58:39.700Z,98903.28
2023-02-22T22:01:06.783Z,98912.22
2023-02-22T22:03:33.745Z,98915.56
2023-02-22T22:06:00.278Z,98915.56
2023-02-22T22:08:27.017Z,98920.03
2023-02-22T22:10:55.493Z,98908.13
2023-02-22T22:13:23.528Z,98915.41
2023-02-22T22:15:50.313Z,98906.97
2023-02-22T22:18:17.075Z,98911.94
2023-02-22T22:20:43.739Z,98912.09
2023-02-22T22:23:11.076Z,98912.75
2023-02-22T22:25:38.937Z,98910.44
2023-02-22T22:28:06.681Z,98908.44
2023-02-22T22:30:36.454Z,98915.91
2023-02-22T22:33:06.386Z,98923.06
2023-02-22T22:35:34.155Z,98926.84
2023-02-22T22:38:01.274Z,98928.81
2023-02-22T22:40:28.349Z,98937.78
2023-02-22T22:42:55.318Z,98933.66
2023-02-22T22:45:21.797Z,98929.66
2023-02-22T22:47:48.194Z,98930.34
2023-02-22T22:50:19.530Z,98934.50
2023-02-22T22:52:46.756Z,98933.31
2023-02-22T22:55:16.045Z,98936.94
2023-02-22T22:57:42.710Z,98936.25
2023-02-22T23:00:14.246Z,98939.09
2023-02-22T23:02:40.614Z,98942.41
2023-02-22T23:05:08.161Z,98945.56
2023-02-22T23:07:34.621Z,98942.91
2023-02-22T23:10:01.430Z,98939.94
2023-02-22T23:12:27.917Z,98938.78
2023-02-22T23:14:54.417Z,98940.09
2023-02-22T23:17:21.081Z,98933.63
2023-02-22T23:19:47.584Z,98934.13
2023-02-22T23:22:14.020Z,98940.94
2023-02-22T23:24:40.570Z,98939.78
2023-02-22T23:27:07.798Z,98934.63
2023-02-22T23:29:38.267Z,98936.44
2023-02-22T23:32:06.524Z,98929.84
2023-02-22T23:34:35.062Z,98935.81
2023-02-22T23:37:01.898Z,98933.81
2023-02-22T23:39:28.792Z,98926.72
2023-02-22T23:41:58.564Z,98927.19
2023-02-22T23:44:28.398Z,98928.69
2023-02-22T23:46:55.618Z,98919.72
2023-02-22T23:49:26.294Z,98928.66
2023-02-22T23:51:55.351Z,98927.34
2023-02-22T23:54:22.217Z,98927.84
2023-02-22T23:56:49.088Z,98924.22
2023-02-22T23:59:16.797Z,98932.81
